TABULAR FORECAST OF EN-ROUTE CONDITIONS LOW LEVEL                   MODEL TA1

DATE: OCTOBER 31, 2014                                                               HEIGHT IN FEET MSL

VALID FOR DEPARTURE BETWEEN: 10.00UTC AND 15.30UTC

AND ARRIVAL BETWEEN: 10.00UTC AND 15.30UTC

SPECIAL FEATURES OF THE METEOROLOGICAL SITUATION;
THERMAL HEATING WILL SUPPORT ISOLATED MODERATE CONVECTION.

07° N                            4° N                            2° N

UPPER WINDS

(DEGREES TRUE AND KNOTS)

                              10000FT

                              5000FT

                               2000FT

TEMPERATURE

(DEGREES CELSIUS)

 

 

                             110/25  PS  09

                             130/25  PS  17          

                             120/25  PS  23  

 

CLOUDS

                                                                                                                                 

                                                             8000

          TILL 1200Z SCT/LOC BKN ST ——  
                                                             200

                                     6000

     AFTER 1200Z  SCT——

                                      1800

                                                               

VISIBILITY

10KM. IN FOG/MIST: 500M-4000M.

SIGNIFICANT WEATHER

LOCALLY MIST/FOG TILL 1200Z.

HEIGHT OF 0ºC ISOTHERM (ft)

+/- 16000

FORECAST LOWEST QNH (hPa)

 

SUPPLEMENTARY INFORMATION

Issued at NMC on: 10.00UTC OCTOBER 31, 2014 BY FORECASTER: R.NANDA

Note:

1.   Positive and negative values are indicated by the prefix PS (plus) and M (minus) respectively.

2.   When a single numerical value of an element is given in a forecast it is to be interpreted as representing

the most probable mean of a range of values which the element may assume during the period of the forecast.

 

ABBREVIATIONS: SKC - 0 oktas, FEW - 1 to 2 oktas, SCT - 3 to 4 oktas, BKN - 5 to 7 oktas, OVC - 8 oktas,

LYR - Layered, LOC - Locally, ISOL - Isolated, OCNL - Occasional, FRQ - Frequent, EMBD - Embedded.

 

METAR SMJP 311000Z 13003KT CAVOK 23/22 Q1011 NOSIG=

METAR SMZO 311000Z 09004KT 9999 FEW010 25/23 Q1011 NOSIG=

METAR SMNI 311000Z 12005KT 9999 FEW015 26/24 Q1011=